Terminal Aerodrome Forecast
Issued by NWS Wakefield, VA

Home | Current Version | Previous Version | Text Only | Print | Product List | Glossary On
Versions: 1 2 3 4 5 6 7 8 9 10 11 12 13 14 15 16 17 18 19 20
000
FTUS41 KAKQ 022300
TAFRIC
TAF
KRIC 022339Z 0300/0324 04004KT P6SM BKN250
     FM031400 13006KT P6SM BKN040 OVC090
     FM031900 19007KT 4SM -RA BR OVC040
     FM032200 18006KT 2SM -RA BR OVC025=

USA.gov is the U.S. government's official web portal to all federal, state and local government web resources and services.